Time;durP1;ratioP1;P1;durP2;ratioP2;P2;SDS_P1;SDS_P2;PMS_P1;PMS_P2;Temp;Humidity;BMP_temperature;BMP_pressure;BME280_temperature;BME280_humidity;BME280_pressure;Samples;Min_cycle;Max_cycle;Signal;HPM_P1;HPM_P2
2022/10/05 00:00:49;;;;;;;8.30;5.10;;;15.30;99.90;;;;;;5135085;27;20051;-64
2022/10/05 00:03:15;;;;;;;9.18;5.18;;;15.30;99.90;;;;;;5134952;27;20096;-64
2022/10/05 00:05:43;;;;;;;8.23;4.82;;;15.30;99.90;;;;;;5134522;27;20047;-64
2022/10/05 00:08:09;;;;;;;5.68;4.30;;;15.30;99.90;;;;;;5134759;27;20425;-64
2022/10/05 00:10:35;;;;;;;10.13;4.93;;;15.30;99.90;;;;;;5134843;27;20046;-64
2022/10/05 00:13:01;;;;;;;9.48;4.57;;;15.30;99.90;;;;;;5134910;27;20039;-64
2022/10/05 00:15:27;;;;;;;10.55;4.70;;;15.20;99.90;;;;;;5134424;27;20179;-64
2022/10/05 00:17:54;;;;;;;5.80;4.10;;;15.20;99.90;;;;;;5133254;27;20043;-64
2022/10/05 00:20:25;;;;;;;6.75;3.85;;;15.20;99.90;;;;;;5134562;27;20162;-64
2022/10/05 00:22:56;;;;;;;8.18;4.53;;;15.20;99.90;;;;;;5134465;27;20043;-64
2022/10/05 00:25:22;;;;;;;8.02;4.97;;;15.20;99.90;;;;;;5134438;27;20043;-64
2022/10/05 00:27:54;;;;;;;5.85;4.10;;;15.20;99.90;;;;;;5134553;27;20110;-64
2022/10/05 00:30:21;;;;;;;7.72;4.13;;;15.20;99.90;;;;;;5134392;27;20129;-64
2022/10/05 00:32:47;;;;;;;6.97;4.43;;;15.20;99.90;;;;;;5147887;27;20046;-64
2022/10/05 00:35:14;;;;;;;5.05;3.67;;;15.20;99.90;;;;;;5154560;27;20049;-64
2022/10/05 00:37:40;;;;;;;10.60;3.67;;;15.20;99.90;;;;;;5155130;27;20042;-64
2022/10/05 00:40:27;;;;;;;5.82;3.92;;;15.20;99.90;;;;;;5155014;27;20046;-64
2022/10/05 00:43:07;;;;;;;5.45;3.70;;;15.20;99.90;;;;;;5154910;27;20043;-64
2022/10/05 00:45:39;;;;;;;6.88;3.95;;;15.20;99.90;;;;;;5154357;27;20493;-64
2022/10/05 00:48:31;;;;;;;6.55;3.63;;;15.20;99.90;;;;;;5154802;27;20075;-64
2022/10/05 00:51:30;;;;;;;7.18;5.53;;;15.20;99.90;;;;;;5154807;27;20068;-64
2022/10/05 00:54:04;;;;;;;6.72;3.70;;;15.20;99.90;;;;;;5154288;27;20042;-64
2022/10/05 00:56:46;;;;;;;6.45;4.05;;;15.20;99.90;;;;;;5153446;27;20039;-64
2022/10/05 00:59:30;;;;;;;7.95;3.80;;;15.20;99.90;;;;;;5154614;27;20035;-65
2022/10/05 01:02:05;;;;;;;5.65;3.78;;;15.20;99.90;;;;;;5154555;27;20041;-65
2022/10/05 01:04:58;;;;;;;9.27;4.72;;;15.20;99.90;;;;;;5154163;27;20351;-64
2022/10/05 01:07:58;;;;;;;8.43;4.40;;;15.20;99.90;;;;;;5112001;27;20574;-64
2022/10/05 01:10:39;;;;;;;7.53;4.10;;;15.20;99.90;;;;;;5154258;27;20047;-64
2022/10/05 01:13:09;;;;;;;6.53;4.53;;;15.20;99.90;;;;;;5154577;27;20475;-64
2022/10/05 01:15:38;;;;;;;6.68;4.78;;;15.20;99.90;;;;;;5154115;27;20054;-64
2022/10/05 01:18:25;;;;;;;8.52;4.50;;;15.20;99.90;;;;;;5154230;27;20034;-64
2022/10/05 01:20:59;;;;;;;11.10;5.32;;;15.10;99.90;;;;;;5154114;27;20123;-64
2022/10/05 01:23:48;;;;;;;8.68;5.35;;;15.20;99.90;;;;;;5152809;27;20049;-64
2022/10/05 01:26:25;;;;;;;9.40;5.60;;;15.10;99.90;;;;;;5153975;27;20039;-64
2022/10/05 01:29:11;;;;;;;12.38;5.57;;;15.10;99.90;;;;;;5153966;27;20494;-64
2022/10/05 01:32:05;;;;;;;11.52;5.22;;;15.10;99.90;;;;;;5153584;27;20047;-65
2022/10/05 01:34:41;;;;;;;8.50;5.30;;;15.10;99.90;;;;;;5153765;27;20039;-64
2022/10/05 01:37:10;;;;;;;10.55;6.30;;;15.10;99.90;;;;;;5153895;27;20070;-65
2022/10/05 01:39:45;;;;;;;10.07;5.70;;;15.10;99.90;;;;;;5153700;27;20039;-64
2022/10/05 01:42:29;;;;;;;10.40;6.00;;;15.10;99.90;;;;;;5153773;27;20048;-64
2022/10/05 01:45:15;;;;;;;12.38;6.28;;;15.10;99.90;;;;;;5153540;27;20039;-64
2022/10/05 01:47:48;;;;;;;10.90;5.47;;;15.10;99.90;;;;;;5153737;27;20031;-64
2022/10/05 01:50:37;;;;;;;12.88;6.30;;;15.10;99.90;;;;;;5153557;27;20039;-64
2022/10/05 01:53:23;;;;;;;14.32;6.32;;;15.10;99.90;;;;;;5153711;27;20387;-64
2022/10/05 01:55:55;;;;;;;8.82;6.15;;;15.00;99.90;;;;;;5153347;27;20031;-64
2022/10/05 01:58:38;;;;;;;10.13;7.00;;;15.10;99.90;;;;;;5153434;27;20045;-64
2022/10/05 02:01:23;;;;;;;8.77;5.78;;;15.10;99.90;;;;;;5153823;27;20041;-64
2022/10/05 02:04:01;;;;;;;10.43;6.40;;;15.10;99.90;;;;;;5153360;27;20035;-63
2022/10/05 02:06:36;;;;;;;11.73;5.25;;;15.10;99.90;;;;;;5153498;27;20038;-64
2022/10/05 02:09:08;;;;;;;10.10;5.60;;;15.10;99.90;;;;;;5153338;27;20042;-63
2022/10/05 02:11:35;;;;;;;11.40;5.88;;;15.00;99.90;;;;;;5153640;27;20039;-64
2022/10/05 02:14:08;;;;;;;9.77;5.05;;;15.10;99.90;;;;;;5153320;27;20038;-63
2022/10/05 02:16:37;;;;;;;;;;;15.10;99.90;;;;;;5153789;27;20495;-63
2022/10/05 02:19:24;;;;;;;10.07;5.90;;;15.10;99.90;;;;;;5153434;27;19919;-63
2022/10/05 02:21:57;;;;;;;7.60;5.07;;;15.10;99.90;;;;;;5153487;27;20368;-64
2022/10/05 02:24:31;;;;;;;9.73;5.00;;;15.10;99.90;;;;;;5151998;27;20380;-63
2022/10/05 02:26:57;;;;;;;9.43;5.20;;;15.00;99.90;;;;;;5153340;27;20042;-63
2022/10/05 02:29:28;;;;;;;8.50;5.60;;;15.00;99.90;;;;;;5153271;27;20043;-63
2022/10/05 02:32:02;;;;;;;8.05;4.80;;;15.00;99.90;;;;;;5153289;27;20522;-63
2022/10/05 02:34:40;;;;;;;9.98;5.50;;;15.00;99.90;;;;;;5153114;27;20034;-64
2022/10/05 02:37:34;;;;;;;8.68;5.05;;;15.00;99.90;;;;;;5152060;27;20034;-63
2022/10/05 02:40:22;;;;;;;10.88;5.07;;;15.00;99.90;;;;;;5153048;27;20461;-63
2022/10/05 02:43:03;;;;;;;9.75;5.00;;;14.90;99.90;;;;;;5151897;27;20594;-63
2022/10/05 02:45:51;;;;;;;6.38;5.15;;;15.00;99.90;;;;;;5155838;27;20034;-63
2022/10/05 02:48:32;;;;;;;7.45;4.90;;;15.00;99.90;;;;;;5157210;27;20530;-63
2022/10/05 02:51:21;;;;;;;11.02;4.82;;;15.00;99.90;;;;;;5157288;27;20039;-63
2022/10/05 02:54:10;;;;;;;7.18;4.65;;;15.00;99.90;;;;;;5156683;27;20076;-64
2022/10/05 02:56:50;;;;;;;10.23;5.10;;;15.00;99.90;;;;;;5156892;27;20031;-63
2022/10/05 02:59:39;;;;;;;7.32;4.80;;;15.00;99.90;;;;;;5155710;27;20398;-63
2022/10/05 03:02:13;;;;;;;7.47;4.75;;;15.00;99.90;;;;;;5157026;27;20035;-63
2022/10/05 03:04:57;;;;;;;9.02;5.18;;;15.00;99.90;;;;;;5156607;27;20031;-63
2022/10/05 03:07:29;;;;;;;9.95;4.70;;;15.00;99.90;;;;;;5156643;27;20035;-63
2022/10/05 03:10:16;;;;;;;9.80;4.60;;;15.00;99.90;;;;;;5156749;27;20079;-64
2022/10/05 03:12:58;;;;;;;9.88;4.78;;;15.00;99.90;;;;;;5156751;27;20103;-63
2022/10/05 03:15:57;;;;;;;8.63;4.88;;;15.00;99.90;;;;;;5156392;27;20082;-64
2022/10/05 03:18:32;;;;;;;7.40;4.32;;;15.00;99.90;;;;;;5156715;27;20038;-63
2022/10/05 03:21:25;;;;;;;8.15;4.85;;;14.90;99.90;;;;;;5156554;27;20433;-63
2022/10/05 03:24:27;;;;;;;9.35;5.15;;;14.90;99.90;;;;;;5154837;27;20453;-63
2022/10/05 03:27:16;;;;;;;8.27;4.65;;;14.90;99.90;;;;;;5156434;27;20038;-63
2022/10/05 03:29:56;;;;;;;9.60;5.72;;;14.90;99.90;;;;;;5156352;27;20091;-63
2022/10/05 03:33:02;;;;;;;7.57;5.13;;;14.90;99.90;;;;;;5156228;27;20042;-63
2022/10/05 03:35:54;;;;;;;7.82;4.40;;;14.90;99.90;;;;;;5156104;27;20038;-63
2022/10/05 03:39:00;;;;;;;9.13;4.70;;;14.90;99.90;;;;;;5141277;27;20100;-63
2022/10/05 03:41:35;;;;;;;9.10;5.07;;;14.90;99.90;;;;;;5155357;27;20085;-64
2022/10/05 03:44:22;;;;;;;9.63;5.70;;;14.80;99.90;;;;;;5155815;27;20447;-64
2022/10/05 03:46:53;;;;;;;9.18;5.40;;;14.80;99.90;;;;;;5154655;27;20039;-64
2022/10/05 03:49:26;;;;;;;10.47;5.70;;;14.80;99.90;;;;;;5156060;27;20054;-64
2022/10/05 03:52:04;;;;;;;8.32;5.18;;;14.80;99.90;;;;;;5156089;27;20276;-63
2022/10/05 03:54:37;;;;;;;9.32;5.15;;;14.80;99.90;;;;;;5155548;27;20035;-64
2022/10/05 03:57:11;;;;;;;7.30;5.00;;;14.80;99.90;;;;;;5155569;27;20491;-64
2022/10/05 03:59:43;;;;;;;8.65;5.63;;;14.80;99.90;;;;;;5154324;27;20038;-64
2022/10/05 04:02:25;;;;;;;7.35;5.45;;;14.80;99.90;;;;;;5155925;27;20407;-64
2022/10/05 04:05:22;;;;;;;7.60;5.00;;;14.80;99.90;;;;;;5155477;27;20039;-64
2022/10/05 04:07:59;;;;;;;9.15;5.10;;;14.80;99.90;;;;;;5151203;27;20051;-63
2022/10/05 04:10:51;;;;;;;11.70;5.00;;;14.80;99.90;;;;;;5155560;27;20042;-64
2022/10/05 04:13:21;;;;;;;10.88;5.60;;;14.80;99.90;;;;;;5155600;27;20129;-64
2022/10/05 04:15:53;;;;;;;10.82;5.60;;;14.80;99.90;;;;;;5155069;27;20046;-63
2022/10/05 04:18:29;;;;;;;9.85;5.60;;;14.80;99.90;;;;;;5154085;27;20045;-64
2022/10/05 04:21:01;;;;;;;12.27;5.53;;;14.80;99.90;;;;;;5155567;27;20198;-64
2022/10/05 04:23:46;;;;;;;10.15;5.88;;;14.80;99.90;;;;;;5155000;27;20050;-64
2022/10/05 04:26:42;;;;;;;9.88;6.05;;;14.80;99.90;;;;;;5155365;27;20043;-64
2022/10/05 04:29:35;;;;;;;10.10;5.88;;;14.80;99.90;;;;;;5155231;27;20465;-64
2022/10/05 04:32:01;;;;;;;8.43;5.85;;;14.80;99.90;;;;;;5112308;27;20042;-64
2022/10/05 04:34:38;;;;;;;10.60;5.63;;;14.80;99.90;;;;;;5154675;27;20452;-64
2022/10/05 04:37:12;;;;;;;12.70;6.10;;;14.70;99.90;;;;;;5153859;27;20046;-64
2022/10/05 04:39:47;;;;;;;9.63;5.90;;;14.70;99.90;;;;;;5153651;27;20104;-63
2022/10/05 04:42:16;;;;;;;13.93;6.28;;;14.70;99.90;;;;;;5154942;27;20082;-64
2022/10/05 04:44:57;;;;;;;11.85;6.00;;;14.70;99.90;;;;;;5154461;27;20410;-64
2022/10/05 04:47:37;;;;;;;14.85;7.20;;;14.70;99.90;;;;;;5154904;27;20045;-64
2022/10/05 04:50:23;;;;;;;11.95;6.65;;;14.60;99.90;;;;;;5154737;27;20040;-64
2022/10/05 04:53:08;;;;;;;13.27;7.07;;;14.60;99.90;;;;;;5154659;27;20045;-64
2022/10/05 04:55:47;;;;;;;12.63;7.13;;;14.60;99.90;;;;;;5154563;27;20099;-64
2022/10/05 04:58:59;;;;;;;14.05;7.78;;;14.60;99.90;;;;;;5153253;27;20039;-64
2022/10/05 05:01:46;;;;;;;13.00;7.05;;;14.60;99.90;;;;;;5070173;28;20171;-64
2022/10/05 05:04:31;;;;;;;10.50;6.80;;;14.50;99.90;;;;;;5148465;27;20490;-64
2022/10/05 05:07:08;;;;;;;10.02;6.30;;;14.50;99.90;;;;;;5153454;27;20514;-64
2022/10/05 05:10:18;;;;;;;11.20;7.45;;;14.50;99.90;;;;;;5154100;27;20080;-63
2022/10/05 05:13:24;;;;;;;12.32;6.68;;;14.50;99.90;;;;;;5153198;27;20049;-64
2022/10/05 05:16:27;;;;;;;11.98;6.32;;;14.40;99.90;;;;;;5149709;27;20099;-64
2022/10/05 05:19:22;;;;;;;12.38;7.75;;;14.40;99.90;;;;;;5154298;27;20122;-64
2022/10/05 05:21:56;;;;;;;11.95;7.18;;;14.40;99.90;;;;;;5152844;27;20038;-64
2022/10/05 05:24:57;;;;;;;15.75;7.95;;;14.40;99.90;;;;;;5153742;27;20043;-64
2022/10/05 05:27:56;;;;;;;11.02;6.95;;;14.40;99.90;;;;;;5152968;27;20471;-64
2022/10/05 05:30:44;;;;;;;12.65;6.55;;;14.40;99.90;;;;;;5153882;27;20047;-64
2022/10/05 05:33:32;;;;;;;15.20;7.40;;;14.40;99.90;;;;;;5154161;27;20050;-64
2022/10/05 05:36:15;;;;;;;13.73;7.63;;;14.30;99.90;;;;;;5153598;27;20447;-64
2022/10/05 05:38:51;;;;;;;14.70;7.60;;;14.40;99.90;;;;;;5153767;27;20031;-64
2022/10/05 05:41:46;;;;;;;12.82;7.10;;;14.30;99.90;;;;;;5154003;27;20039;-64
2022/10/05 05:44:25;;;;;;;15.20;7.80;;;14.40;99.90;;;;;;5152255;27;20051;-64
2022/10/05 05:46:50;;;;;;;12.45;7.25;;;14.30;99.90;;;;;;5153758;27;20118;-64
2022/10/05 05:49:28;;;;;;;12.52;7.45;;;14.40;99.90;;;;;;5153521;27;20130;-63
2022/10/05 05:52:00;;;;;;;15.27;7.78;;;14.40;99.90;;;;;;5151621;27;20486;-64
2022/10/05 05:54:41;;;;;;;16.10;8.07;;;14.40;99.90;;;;;;5150115;27;20099;-64
2022/10/05 05:57:09;;;;;;;18.10;8.40;;;14.40;99.90;;;;;;5151379;27;20033;-64
2022/10/05 05:59:51;;;;;;;13.88;7.55;;;14.40;99.90;;;;;;5153507;27;20038;-64
2022/10/05 06:02:24;;;;;;;11.40;7.55;;;14.40;99.90;;;;;;5152992;27;20049;-64
2022/10/05 06:04:59;;;;;;;12.38;7.65;;;14.40;99.90;;;;;;5150701;27;20050;-65
2022/10/05 06:07:30;;;;;;;12.00;7.53;;;14.40;99.90;;;;;;5152222;27;20153;-65
2022/10/05 06:10:13;;;;;;;11.38;6.95;;;14.40;99.90;;;;;;5152731;27;20109;-64
2022/10/05 06:12:42;;;;;;;12.05;7.55;;;14.40;99.90;;;;;;5153146;27;20035;-65
2022/10/05 06:15:16;;;;;;;13.57;7.82;;;14.40;99.90;;;;;;5152323;27;20039;-64
2022/10/05 06:17:53;;;;;;;13.05;7.47;;;14.40;99.90;;;;;;5152319;27;20049;-65
2022/10/05 06:20:40;;;;;;;11.90;7.50;;;14.40;99.90;;;;;;5157078;27;20118;-64
2022/10/05 06:23:14;;;;;;;14.25;7.68;;;14.40;99.90;;;;;;5157952;27;20054;-65
2022/10/05 06:26:07;;;;;;;12.82;7.20;;;14.40;99.90;;;;;;5157427;27;20034;-64
2022/10/05 06:28:32;;;;;;;;;;;14.50;99.90;;;;;;5156656;27;20507;-64
2022/10/05 06:31:28;;;;;;;19.35;7.97;;;14.50;99.90;;;;;;5157283;27;19919;-64
2022/10/05 06:34:07;;;;;;;11.93;7.43;;;14.40;99.90;;;;;;5157315;27;20035;-65
2022/10/05 06:36:50;;;;;;;12.70;7.80;;;14.50;99.90;;;;;;5157377;27;20414;-65
2022/10/05 06:39:46;;;;;;;11.43;7.53;;;14.40;99.90;;;;;;5157234;27;20049;-65
2022/10/05 06:42:44;;;;;;;11.80;7.68;;;14.50;99.90;;;;;;5157514;27;20372;-64
2022/10/05 06:46:00;;;;;;;15.00;7.60;;;14.50;99.90;;;;;;5156268;27;20047;-64
2022/10/05 06:49:00;;;;;;;11.02;7.50;;;14.50;99.90;;;;;;5056122;28;20617;-65
2022/10/05 06:51:28;;;;;;;10.15;7.22;;;14.60;99.90;;;;;;5072700;28;20036;-65
2022/10/05 06:54:19;;;;;;;13.52;7.60;;;14.60;99.90;;;;;;5134964;27;20043;-65
2022/10/05 06:56:57;;;;;;;11.68;7.47;;;14.60;99.90;;;;;;5156951;27;20148;-64
2022/10/05 06:59:25;;;;;;;11.15;7.43;;;14.50;99.90;;;;;;5157005;27;20057;-65
2022/10/05 07:02:17;;;;;;;13.52;7.72;;;14.60;99.90;;;;;;5156917;27;20440;-64
2022/10/05 07:04:48;;;;;;;10.17;7.00;;;14.60;99.90;;;;;;5148212;27;20049;-65
2022/10/05 07:07:34;;;;;;;11.52;6.68;;;14.60;99.90;;;;;;5155924;27;20268;-64
2022/10/05 07:10:12;;;;;;;9.77;6.68;;;14.60;99.90;;;;;;5121463;27;20047;-65
2022/10/05 07:13:01;;;;;;;12.00;6.65;;;14.60;99.90;;;;;;5134809;27;20483;-65
2022/10/05 07:15:33;;;;;;;10.90;5.97;;;14.60;99.90;;;;;;5134415;27;20038;-65
2022/10/05 07:18:30;;;;;;;9.20;6.57;;;14.60;99.90;;;;;;5135905;27;20043;-65
2022/10/05 07:21:21;;;;;;;10.07;6.78;;;14.60;99.90;;;;;;5134446;27;20046;-65
2022/10/05 07:24:26;;;;;;;13.02;7.22;;;14.70;99.90;;;;;;5135463;27;20134;-65
2022/10/05 07:27:08;;;;;;;12.27;7.03;;;14.70;99.90;;;;;;5135668;27;20041;-65
2022/10/05 07:29:40;;;;;;;9.20;6.28;;;14.70;99.90;;;;;;5135331;27;20044;-65
2022/10/05 07:32:31;;;;;;;11.93;6.82;;;14.70;99.90;;;;;;5135548;27;20054;-65
2022/10/05 07:38:20;;;;;;;12.30;7.65;;;14.70;99.90;;;;;;5135687;27;20043;-65
2022/10/05 07:40:55;;;;;;;9.68;6.32;;;14.70;99.90;;;;;;5135452;27;20047;-65
2022/10/05 07:43:41;;;;;;;11.43;6.95;;;14.80;99.90;;;;;;5134302;27;20031;-64
2022/10/05 07:46:24;;;;;;;9.13;6.13;;;14.70;99.90;;;;;;5135078;27;20499;-66
2022/10/05 07:49:21;;;;;;;13.88;6.75;;;14.80;99.90;;;;;;5135435;27;20102;-65
2022/10/05 07:52:16;;;;;;;10.32;6.75;;;14.80;99.90;;;;;;5133982;27;20487;-64
2022/10/05 07:55:20;;;;;;;9.55;6.43;;;14.80;99.90;;;;;;5130851;27;20402;-64
2022/10/05 07:57:52;;;;;;;10.68;7.13;;;14.80;99.90;;;;;;5135022;27;20514;-64
2022/10/05 08:00:21;;;;;;;9.65;5.85;;;14.90;99.90;;;;;;5133658;27;20035;-64
2022/10/05 08:03:08;;;;;;;9.80;6.43;;;14.90;99.90;;;;;;5151524;27;20053;-64
2022/10/05 08:05:39;;;;;;;8.82;5.75;;;14.90;99.90;;;;;;5155493;27;20042;-64
2022/10/05 08:08:17;;;;;;;9.27;6.95;;;14.90;99.90;;;;;;5155696;27;20045;-64
2022/10/05 08:10:57;;;;;;;11.27;6.47;;;14.90;99.90;;;;;;5155459;27;20452;-64
2022/10/05 08:14:08;;;;;;;8.00;6.15;;;15.00;99.90;;;;;;5155702;27;20038;-64
2022/10/05 08:16:37;;;;;;;8.73;5.68;;;15.00;99.90;;;;;;5149230;27;20070;-64
2022/10/05 08:19:28;;;;;;;11.57;6.18;;;15.00;99.90;;;;;;5155387;27;20031;-64
2022/10/05 08:22:04;;;;;;;7.50;5.32;;;15.00;99.90;;;;;;5154408;27;20066;-64
2022/10/05 08:24:48;;;;;;;11.77;6.05;;;15.00;99.90;;;;;;5155064;27;20386;-64
2022/10/05 08:27:24;;;;;;;9.70;6.03;;;15.00;99.90;;;;;;5155234;27;20038;-64
2022/10/05 08:30:00;;;;;;;12.80;6.20;;;15.00;99.90;;;;;;5154934;27;20056;-65
2022/10/05 08:32:54;;;;;;;10.55;6.10;;;15.10;99.90;;;;;;5155256;27;20049;-66
2022/10/05 08:35:32;;;;;;;8.27;5.80;;;15.10;99.90;;;;;;5148698;27;20038;-66
2022/10/05 08:38:04;;;;;;;7.32;5.35;;;15.10;99.90;;;;;;5144608;27;20389;-66
2022/10/05 08:40:59;;;;;;;7.55;5.13;;;15.20;99.90;;;;;;5143444;27;20087;-66
2022/10/05 08:44:07;;;;;;;11.27;6.03;;;15.20;99.90;;;;;;5154123;27;20050;-65
2022/10/05 08:47:08;;;;;;;8.90;5.82;;;15.30;99.90;;;;;;5154674;27;20045;-66
2022/10/05 08:49:59;;;;;;;8.60;5.35;;;15.30;99.90;;;;;;5153546;27;20046;-66
2022/10/05 08:52:58;;;;;;;7.78;5.57;;;15.30;99.90;;;;;;5153638;27;20398;-65
2022/10/05 08:55:35;;;;;;;8.55;5.38;;;15.30;99.90;;;;;;5154457;27;20399;-64
2022/10/05 08:58:29;;;;;;;7.38;5.10;;;15.40;99.90;;;;;;5153827;27;20045;-64
2022/10/05 09:01:03;;;;;;;8.73;5.15;;;15.50;99.90;;;;;;5153570;27;20039;-64
2022/10/05 09:03:49;;;;;;;7.50;4.95;;;15.50;99.90;;;;;;5154529;27;20042;-64
2022/10/05 09:06:34;;;;;;;6.88;4.97;;;15.50;99.90;;;;;;5154385;27;20054;-64
2022/10/05 09:09:17;;;;;;;8.10;4.88;;;15.60;99.90;;;;;;5154392;27;20031;-64
2022/10/05 09:12:06;;;;;;;6.13;4.38;;;15.60;99.90;;;;;;5153206;27;20043;-64
2022/10/05 09:14:50;;;;;;;6.68;4.72;;;15.70;99.90;;;;;;5154049;27;20442;-64
2022/10/05 09:17:37;;;;;;;6.95;4.38;;;15.70;99.90;;;;;;5154314;27;20039;-64
2022/10/05 09:20:13;;;;;;;6.70;4.38;;;15.70;99.90;;;;;;5154319;27;20078;-64
2022/10/05 09:23:04;;;;;;;7.10;4.30;;;15.80;99.90;;;;;;5153017;27;20038;-64
2022/10/05 09:25:57;;;;;;;8.45;4.10;;;15.80;99.90;;;;;;5152529;27;20038;-64
2022/10/05 09:28:26;;;;;;;;;;;15.80;99.90;;;;;;5154569;27;20078;-64
2022/10/05 09:31:26;;;;;;;7.25;4.22;;;15.80;99.90;;;;;;5142033;27;19919;-65
2022/10/05 09:34:24;;;;;;;6.57;4.07;;;15.80;99.90;;;;;;5141051;27;20062;-66
2022/10/05 09:37:26;;;;;;;5.95;4.05;;;15.80;99.90;;;;;;5142706;27;20485;-65
2022/10/05 09:40:32;;;;;;;6.05;3.60;;;15.80;99.90;;;;;;5132969;27;20039;-65
2022/10/05 09:43:04;;;;;;;7.25;4.30;;;15.80;99.90;;;;;;5133269;27;20039;-66
2022/10/05 09:45:47;;;;;;;6.28;4.10;;;15.80;99.90;;;;;;5132859;27;20084;-65
2022/10/05 09:48:22;;;;;;;6.75;3.95;;;15.80;99.90;;;;;;5131726;27;20047;-65
2022/10/05 09:51:09;;;;;;;4.75;3.45;;;15.90;99.90;;;;;;5133153;27;20050;-65
2022/10/05 09:53:54;;;;;;;8.10;4.50;;;15.80;99.90;;;;;;5132670;27;20058;-65
2022/10/05 09:56:59;;;;;;;7.40;4.22;;;15.80;99.90;;;;;;5132502;27;20039;-65
2022/10/05 09:59:59;;;;;;;5.65;4.13;;;15.90;99.90;;;;;;5133006;27;20424;-66
2022/10/05 10:03:10;;;;;;;6.03;4.30;;;15.80;99.90;;;;;;5132877;27;20080;-65
2022/10/05 10:06:03;;;;;;;5.47;4.35;;;15.80;99.90;;;;;;5132739;27;20031;-65
2022/10/05 10:08:32;;;;;;;;;;;15.90;99.90;;;;;;5133332;27;20027;-66
2022/10/05 10:11:23;;;;;;;7.50;4.30;;;15.90;99.90;;;;;;5131365;28;19919;-65
2022/10/05 10:13:55;;;;;;;5.90;3.85;;;16.00;99.90;;;;;;5131235;28;20043;-65
2022/10/05 10:16:59;;;;;;;5.47;3.90;;;15.90;99.90;;;;;;5132748;27;20464;-65
2022/10/05 10:20:01;;;;;;;5.30;3.92;;;15.90;99.90;;;;;;5069139;28;20522;-66
2022/10/05 10:22:45;;;;;;;5.55;3.90;;;16.00;99.90;;;;;;4973659;28;20058;-65
2022/10/05 10:25:33;;;;;;;6.82;4.40;;;16.00;99.90;;;;;;5055548;28;20048;-65
2022/10/05 10:28:36;;;;;;;5.03;4.18;;;16.00;99.90;;;;;;5069221;28;20037;-65
2022/10/05 10:31:12;;;;;;;;;;;16.10;99.90;;;;;;5069620;28;20417;-65
2022/10/05 10:33:52;;;;;;;7.22;4.28;;;16.10;99.90;;;;;;5069028;28;19916;-65
2022/10/05 10:36:49;;;;;;;5.07;4.07;;;16.10;99.90;;;;;;5069134;28;20437;-66
2022/10/05 10:39:33;;;;;;;4.32;3.78;;;16.10;99.90;;;;;;5052553;28;20175;-66
2022/10/05 10:42:23;;;;;;;9.10;4.32;;;16.20;99.90;;;;;;5069250;28;20041;-65
2022/10/05 10:45:15;;;;;;;3.85;3.35;;;16.20;99.90;;;;;;5068732;28;20045;-65
2022/10/05 10:47:51;;;;;;;4.72;3.20;;;16.20;99.90;;;;;;5069054;28;20044;-65
2022/10/05 10:50:50;;;;;;;4.25;3.30;;;16.20;99.90;;;;;;5035610;28;20467;-65
2022/10/05 10:53:40;;;;;;;4.07;3.65;;;16.30;99.90;;;;;;5068874;28;20050;-66
2022/10/05 10:56:27;;;;;;;4.75;3.10;;;16.30;99.90;;;;;;5068941;28;20370;-65
2022/10/05 10:59:13;;;;;;;4.03;2.85;;;16.40;99.90;;;;;;5103105;27;20054;-65
2022/10/05 11:02:06;;;;;;;4.43;2.67;;;16.40;99.90;;;;;;5131356;28;20086;-65
2022/10/05 11:04:52;;;;;;;5.10;2.80;;;16.40;99.90;;;;;;5132155;27;20282;-66
2022/10/05 11:07:51;;;;;;;2.90;2.28;;;16.50;99.90;;;;;;5136002;27;20054;-66
2022/10/05 11:10:31;;;;;;;8.10;3.75;;;16.60;99.90;;;;;;5135811;27;20479;-65
2022/10/05 11:13:23;;;;;;;4.35;2.30;;;16.60;99.90;;;;;;5136071;27;20035;-65
2022/10/05 11:16:37;;;;;;;4.53;2.80;;;16.60;99.90;;;;;;5135853;27;20028;-65
2022/10/05 11:19:38;;;;;;;4.40;2.60;;;16.70;99.90;;;;;;5122325;27;20055;-66
2022/10/05 11:22:15;;;;;;;5.28;2.97;;;16.70;99.90;;;;;;5134645;27;20526;-65
2022/10/05 11:25:05;;;;;;;6.43;2.95;;;16.80;99.90;;;;;;5134614;27;20411;-65
2022/10/05 11:27:49;;;;;;;3.05;2.60;;;16.80;99.90;;;;;;5135748;27;20039;-66
2022/10/05 11:30:42;;;;;;;6.28;2.97;;;16.80;99.90;;;;;;5135514;27;20058;-65
2022/10/05 11:33:44;;;;;;;2.90;2.55;;;16.90;99.90;;;;;;5135699;27;20031;-66
2022/10/05 11:36:15;;;;;;;3.40;2.88;;;16.90;99.90;;;;;;5110220;27;20058;-65
2022/10/05 11:38:50;;;;;;;3.03;2.72;;;16.90;99.90;;;;;;5135655;27;20035;-66
2022/10/05 11:41:28;;;;;;;4.18;2.90;;;16.90;99.90;;;;;;5135571;27;20039;-65
2022/10/05 11:44:23;;;;;;;3.17;2.60;;;17.00;99.90;;;;;;5133860;27;20479;-66
2022/10/05 11:47:26;;;;;;;7.10;3.03;;;17.00;99.90;;;;;;5135190;27;20043;-65
2022/10/05 11:50:10;;;;;;;4.47;2.58;;;17.00;99.90;;;;;;5135341;27;20039;-65
2022/10/05 11:52:41;;;;;;;3.95;2.83;;;17.00;99.90;;;;;;5135338;27;20057;-65
2022/10/05 11:55:16;;;;;;;6.82;3.22;;;17.00;99.90;;;;;;5134824;27;20051;-65
2022/10/05 11:57:49;;;;;;;3.70;3.10;;;17.00;99.90;;;;;;5134643;27;20043;-66
2022/10/05 12:00:31;;;;;;;7.38;2.75;;;17.10;99.90;;;;;;5133987;27;20403;-65
2022/10/05 12:03:00;;;;;;;3.22;2.40;;;17.00;99.90;;;;;;5135269;27;20095;-65
2022/10/05 12:05:45;;;;;;;3.65;2.78;;;17.10;99.90;;;;;;5133665;27;20402;-65
2022/10/05 12:08:26;;;;;;;5.28;2.70;;;17.20;99.90;;;;;;5134915;27;20043;-65
2022/10/05 12:11:10;;;;;;;3.85;2.58;;;17.10;99.90;;;;;;5133740;27;20110;-65
2022/10/05 12:13:51;;;;;;;3.60;2.55;;;17.10;99.90;;;;;;5134680;27;20031;-66
2022/10/05 12:16:27;;;;;;;7.18;2.50;;;17.20;99.90;;;;;;5134513;27;20063;-65
2022/10/05 12:18:59;;;;;;;5.18;2.63;;;17.20;99.90;;;;;;5134720;27;20034;-65
2022/10/05 12:21:40;;;;;;;3.58;3.22;;;17.20;99.90;;;;;;5134792;27;20039;-64
2022/10/05 12:24:15;;;;;;;2.05;1.83;;;17.30;99.90;;;;;;5134344;27;20050;-66
2022/10/05 12:26:51;;;;;;;4.00;2.25;;;17.40;99.90;;;;;;5134449;27;20039;-66
2022/10/05 12:29:48;;;;;;;4.03;2.40;;;17.40;99.90;;;;;;5139634;27;20038;-65
2022/10/05 12:32:48;;;;;;;2.45;2.25;;;17.50;99.90;;;;;;5152401;27;20125;-65
2022/10/05 12:35:22;;;;;;;2.50;2.17;;;17.50;99.90;;;;;;5097076;27;20046;-67
2022/10/05 12:38:09;;;;;;;3.38;2.40;;;17.50;99.90;;;;;;5153787;27;20047;-67
2022/10/05 12:40:44;;;;;;;2.70;2.00;;;17.60;99.90;;;;;;5154973;27;20042;-66
2022/10/05 12:43:43;;;;;;;2.60;2.40;;;17.60;99.90;;;;;;5153913;27;20398;-65
2022/10/05 12:46:30;;;;;;;8.73;2.33;;;17.60;99.90;;;;;;5154684;27;20038;-64
2022/10/05 12:49:14;;;;;;;3.60;2.25;;;17.60;99.90;;;;;;5154960;27;20035;-64
2022/10/05 12:51:45;;;;;;;5.15;2.40;;;17.60;99.90;;;;;;5154783;27;20410;-65
2022/10/05 12:54:39;;;;;;;5.25;2.10;;;17.60;99.90;;;;;;5150740;27;20134;-65
2022/10/05 12:57:25;;;;;;;2.60;2.22;;;17.70;99.90;;;;;;5147140;27;20549;-64
2022/10/05 13:00:08;;;;;;;3.47;2.15;;;17.80;99.90;;;;;;5144992;27;20030;-63
2022/10/05 13:02:45;;;;;;;2.67;2.08;;;17.70;99.90;;;;;;5142421;27;20442;-64
2022/10/05 13:05:10;;;;;;;5.78;2.28;;;17.80;99.90;;;;;;5143439;27;20516;-63
2022/10/05 13:08:06;;;;;;;4.82;2.30;;;17.80;99.90;;;;;;5143036;27;20159;-64
2022/10/05 13:11:02;;;;;;;3.03;2.00;;;17.80;99.90;;;;;;5133554;27;20546;-63
2022/10/05 13:13:49;;;;;;;2.50;1.70;;;17.80;99.90;;;;;;5133803;27;20035;-63
2022/10/05 13:16:26;;;;;;;2.92;1.90;;;17.90;99.90;;;;;;5138784;27;20031;-63
2022/10/05 13:19:28;;;;;;;4.03;2.17;;;17.90;99.90;;;;;;5141657;27;20049;-63
2022/10/05 13:22:08;;;;;;;2.53;1.85;;;17.90;99.90;;;;;;5143343;27;20031;-64
2022/10/05 13:24:42;;;;;;;4.47;1.90;;;17.90;99.90;;;;;;5142838;27;20147;-64
2022/10/05 13:27:18;;;;;;;3.10;2.10;;;17.90;99.90;;;;;;5143953;27;20036;-64
2022/10/05 13:29:52;;;;;;;5.30;2.33;;;17.90;99.90;;;;;;5151630;27;20039;-64
2022/10/05 13:32:21;;;;;;;5.35;1.95;;;17.90;99.90;;;;;;5154083;27;20034;-64
2022/10/05 13:35:21;;;;;;;4.38;1.73;;;17.90;99.90;;;;;;5153682;27;20119;-66
2022/10/05 13:38:12;;;;;;;3.42;2.20;;;18.00;99.90;;;;;;5153908;27;20087;-64
2022/10/05 13:40:43;;;;;;;4.43;1.98;;;18.00;99.90;;;;;;5153825;27;20563;-64
2022/10/05 13:43:37;;;;;;;1.88;1.58;;;18.00;99.90;;;;;;5153942;27;20034;-64
2022/10/05 13:46:06;;;;;;;4.35;1.90;;;18.00;99.90;;;;;;5153545;27;20060;-63
2022/10/05 13:49:01;;;;;;;2.75;2.03;;;18.00;99.90;;;;;;5152251;27;20115;-64
2022/10/05 13:51:50;;;;;;;2.47;2.00;;;18.00;99.90;;;;;;5153164;27;20047;-64
2022/10/05 13:54:38;;;;;;;3.55;2.40;;;18.00;99.90;;;;;;5152939;27;20398;-64
2022/10/05 13:57:21;;;;;;;5.45;2.20;;;18.00;99.90;;;;;;5152728;27;20321;-64
2022/10/05 13:59:56;;;;;;;3.13;1.77;;;18.00;99.90;;;;;;5153121;27;20038;-63
2022/10/05 14:02:29;;;;;;;4.85;2.08;;;18.10;99.90;;;;;;5153407;27;20530;-63
2022/10/05 14:05:00;;;;;;;5.55;2.17;;;18.10;99.90;;;;;;5152776;27;20110;-63
2022/10/05 14:07:32;;;;;;;3.55;1.75;;;18.10;99.90;;;;;;5153523;27;20109;-64
2022/10/05 14:09:59;;;;;;;4.80;1.98;;;18.10;99.90;;;;;;5153205;27;20034;-63